This is the latest recevied weather packets stored in our database for station/object YBBN. If no packets are shown the sender has not sent any weather packets the latest 10 day(s).
| Time | Temp. | Humidity | Pressure | Rain* | Wind** | Luminosity | Snow |
|---|---|---|---|---|---|---|---|
| 1787792628 | 21.67° C | 60% | 1014 hPa | - | - | - | - |
| 1787792030 | 21.67° C | 60% | 1014 hPa | - | - | - | - |
| 1787791426 | 21.67° C | 60% | 1014 hPa | - | - | - | - |
| 1787790829 | 21.67° C | 53% | 1025 hPa | - | - | - | - |
| 1787790227 | 21.67° C | 53% | 1025 hPa | - | - | - | - |
| 1787789629 | 21.67° C | 53% | 1025 hPa | - | - | - | - |
| 1787789045 | 20.56° C | 60% | 1025 hPa | - | - | - | - |
| 1787788426 | 20.56° C | 60% | 1025 hPa | - | - | - | - |
| 1787787829 | 20.56° C | 60% | 1025 hPa | - | - | - | - |
| 1787787231 | 20° C | 60% | 1025 hPa | - | - | - | - |
| 1787786630 | 20° C | 60% | 1025 hPa | - | - | - | - |
| 1787786027 | 20° C | 60% | 1025 hPa | - | - | - | - |
| 1787785428 | 18.89° C | 63% | 1025 hPa | - | - | - | - |
| 1787784832 | 18.89° C | 63% | 1025 hPa | - | - | - | - |
| 1787784229 | 18.89° C | 63% | 1025 hPa | - | - | - | - |
| 1787783628 | 17.78° C | 72% | 1025 hPa | - | - | - | - |
| 1787783028 | 17.78° C | 72% | 1025 hPa | - | - | - | - |
| 1787782427 | 17.78° C | 72% | 1025 hPa | - | - | - | - |
| 1787781825 | 16.67° C | 77% | 1025 hPa | - | - | - | - |
| 1787781225 | 16.67° C | 77% | 1025 hPa | - | - | - | - |
| 1787780627 | 16.67° C | 77% | 1025 hPa | - | - | - | - |
| 1787780028 | 13.89° C | 87% | 1024 hPa | - | - | - | - |
| 1787779426 | 13.89° C | 87% | 1024 hPa | - | - | - | - |
| 1787778828 | 13.89° C | 87% | 1024 hPa | - | - | - | - |
| 1787778228 | 12.78° C | 82% | 1024 hPa | - | - | - | - |
* Rain since midnight (hover to see other rain measurements)
** Current wind speed in m/s (hover to see current wind gust speed)